createdAt,value
2018-07-11T00:00:49.057Z,0.00
2018-07-11T00:01:49.039Z,0.00
2018-07-11T00:02:49.023Z,0.00
2018-07-11T00:03:49.007Z,0.00
2018-07-11T00:04:48.992Z,0.00
2018-07-11T00:05:48.977Z,0.00
2018-07-11T00:06:48.962Z,0.00
2018-07-11T00:07:48.944Z,0.00
2018-07-11T00:08:48.931Z,0.00
2018-07-11T00:09:48.914Z,0.00
2018-07-11T00:10:48.900Z,0.00
2018-07-11T00:11:48.887Z,0.00
2018-07-11T00:12:48.868Z,0.00
2018-07-11T00:13:48.854Z,0.00
2018-07-11T00:14:48.838Z,0.00
2018-07-11T00:15:48.822Z,0.00
2018-07-11T00:16:48.806Z,0.00
2018-07-11T00:17:48.790Z,0.00
2018-07-11T00:18:48.777Z,0.00
2018-07-11T00:19:48.760Z,0.00
2018-07-11T00:20:48.750Z,0.00
2018-07-11T00:21:48.727Z,0.00
2018-07-11T00:22:48.713Z,0.00
2018-07-11T00:23:48.699Z,0.00
2018-07-11T00:24:48.681Z,0.00
2018-07-11T00:25:48.665Z,0.00
2018-07-11T00:26:48.651Z,0.00
2018-07-11T00:27:48.640Z,0.00
2018-07-11T00:28:48.620Z,0.00
2018-07-11T00:29:48.611Z,0.00
2018-07-11T00:30:48.589Z,0.00
2018-07-11T00:31:48.571Z,0.00
2018-07-11T00:32:48.556Z,0.00
2018-07-11T00:33:48.540Z,0.00
2018-07-11T00:34:48.524Z,0.00
2018-07-11T00:35:48.510Z,0.00
2018-07-11T00:36:48.493Z,0.00
2018-07-11T00:37:48.478Z,0.00
2018-07-11T00:38:48.464Z,0.00
2018-07-11T00:39:48.448Z,0.00
2018-07-11T00:40:48.434Z,0.00
2018-07-11T00:41:48.417Z,0.00
2018-07-11T00:42:48.400Z,0.00
2018-07-11T00:43:48.386Z,0.00
2018-07-11T00:44:48.375Z,0.00
2018-07-11T00:45:48.365Z,0.00
2018-07-11T00:46:48.338Z,0.00
2018-07-11T00:47:48.323Z,0.00
2018-07-11T00:48:48.310Z,0.00
2018-07-11T00:49:48.294Z,0.00
2018-07-11T00:50:48.282Z,0.00
2018-07-11T00:51:48.262Z,0.00
2018-07-11T00:52:48.244Z,0.00
2018-07-11T00:53:48.235Z,0.00
2018-07-11T00:54:48.221Z,0.00
2018-07-11T00:55:48.201Z,0.00
2018-07-11T00:56:48.202Z,0.00
2018-07-11T00:57:48.165Z,0.00
2018-07-11T00:58:48.152Z,0.00
2018-07-11T00:59:48.136Z,0.00
2018-07-11T01:00:48.122Z,0.00
2018-07-11T01:01:48.104Z,0.00
2018-07-11T01:02:48.088Z,0.00
2018-07-11T01:03:48.078Z,0.00
2018-07-11T01:04:48.058Z,0.00
2018-07-11T01:05:48.041Z,0.00
2018-07-11T01:06:48.037Z,0.00
2018-07-11T01:07:48.010Z,0.00
2018-07-11T01:08:47.997Z,0.00
2018-07-11T01:09:47.979Z,0.00
2018-07-11T01:10:47.964Z,0.00
2018-07-11T01:11:47.949Z,0.00
2018-07-11T01:12:47.931Z,0.00
2018-07-11T01:13:47.915Z,0.00
2018-07-11T01:14:47.900Z,0.00
2018-07-11T01:15:47.888Z,0.00
2018-07-11T01:16:47.870Z,0.00
2018-07-11T01:17:47.852Z,0.00
2018-07-11T01:18:47.847Z,0.00
2018-07-11T01:19:47.825Z,0.00
2018-07-11T01:20:47.808Z,0.00
2018-07-11T01:21:47.790Z,0.00
2018-07-11T01:22:47.768Z,0.00
2018-07-11T01:23:47.761Z,0.00
2018-07-11T01:24:47.745Z,0.00
2018-07-11T01:25:47.733Z,0.00
2018-07-11T01:26:47.714Z,0.00
2018-07-11T01:27:47.698Z,0.00
2018-07-11T01:28:47.686Z,0.00
2018-07-11T01:29:47.667Z,0.00
2018-07-11T01:30:47.655Z,0.00
2018-07-11T01:31:47.640Z,0.00
2018-07-11T01:32:47.620Z,0.00
2018-07-11T01:33:47.606Z,0.00
2018-07-11T01:34:47.591Z,0.00
2018-07-11T01:35:47.584Z,0.00
2018-07-11T01:36:47.563Z,0.00
2018-07-11T01:37:47.542Z,0.00
2018-07-11T01:38:47.528Z,0.00
2018-07-11T01:39:47.513Z,0.00
2018-07-11T01:40:47.497Z,0.00
2018-07-11T01:41:47.482Z,0.00
2018-07-11T01:42:47.465Z,0.00
2018-07-11T01:43:47.451Z,0.00
2018-07-11T01:44:47.436Z,0.00
2018-07-11T01:45:47.423Z,0.00
2018-07-11T01:46:47.405Z,0.00
2018-07-11T01:47:47.388Z,0.00
2018-07-11T01:48:47.372Z,0.00
2018-07-11T01:49:47.356Z,0.00
2018-07-11T01:50:47.340Z,0.00
2018-07-11T01:51:47.326Z,0.00
2018-07-11T01:52:47.310Z,0.00
2018-07-11T01:53:47.293Z,0.00
2018-07-11T01:54:47.283Z,0.00
2018-07-11T01:55:47.264Z,0.00
2018-07-11T01:56:47.249Z,0.00
2018-07-11T01:57:47.234Z,0.00
2018-07-11T01:58:47.218Z,0.00
2018-07-11T01:59:47.202Z,0.00
2018-07-11T02:00:47.187Z,0.00
2018-07-11T02:01:47.170Z,0.00
2018-07-11T02:02:47.155Z,0.00
2018-07-11T02:03:47.144Z,0.00
2018-07-11T02:04:47.127Z,0.00
2018-07-11T02:05:47.116Z,0.00
2018-07-11T02:06:47.094Z,0.00
2018-07-11T02:07:47.080Z,0.00
2018-07-11T02:08:47.062Z,0.00
2018-07-11T02:09:47.052Z,0.00
2018-07-11T02:10:47.034Z,0.00
2018-07-11T02:11:47.019Z,0.00
2018-07-11T02:12:47.003Z,0.00
2018-07-11T02:13:46.987Z,0.00
2018-07-11T02:14:46.972Z,0.00
2018-07-11T02:15:46.957Z,0.00
2018-07-11T02:16:46.945Z,0.00
2018-07-11T02:17:46.926Z,0.00
2018-07-11T02:18:46.910Z,0.00
2018-07-11T02:19:46.895Z,0.00
2018-07-11T02:20:46.879Z,0.00
2018-07-11T02:21:46.867Z,0.00
2018-07-11T02:22:46.848Z,0.00
2018-07-11T02:23:46.836Z,0.00
2018-07-11T02:24:46.819Z,0.00
2018-07-11T02:25:46.805Z,0.00
2018-07-11T02:26:46.790Z,0.00
2018-07-11T02:27:46.774Z,0.00
2018-07-11T02:28:46.758Z,0.00
2018-07-11T02:29:46.742Z,0.00
2018-07-11T02:30:46.728Z,0.00
2018-07-11T02:31:46.713Z,0.00
2018-07-11T02:32:46.699Z,0.00
2018-07-11T02:33:46.685Z,0.00
2018-07-11T02:34:46.666Z,0.00
2018-07-11T02:35:46.652Z,0.00
2018-07-11T02:36:46.634Z,0.00
2018-07-11T02:37:46.621Z,0.00
2018-07-11T02:38:46.605Z,0.00
2018-07-11T02:39:46.590Z,0.00
2018-07-11T02:40:46.578Z,0.00
2018-07-11T02:41:46.559Z,0.00
2018-07-11T02:42:46.541Z,0.00
2018-07-11T02:43:46.532Z,0.00
2018-07-11T02:44:46.515Z,0.00
2018-07-11T02:45:46.498Z,0.00
2018-07-11T02:46:46.483Z,0.00
2018-07-11T02:47:46.468Z,0.00
2018-07-11T02:48:46.451Z,0.00
2018-07-11T02:49:46.436Z,0.00
2018-07-11T02:50:46.423Z,0.00
2018-07-11T02:51:46.406Z,0.00
2018-07-11T02:52:46.391Z,0.00
2018-07-11T02:53:46.375Z,0.00
2018-07-11T02:54:46.359Z,0.00
2018-07-11T02:55:46.344Z,0.00
2018-07-11T02:56:46.328Z,0.00
2018-07-11T02:57:46.312Z,0.00
2018-07-11T02:58:46.301Z,0.00
2018-07-11T02:59:46.286Z,0.00
2018-07-11T03:00:46.269Z,0.00
2018-07-11T03:01:46.255Z,0.00
2018-07-11T03:02:46.237Z,0.00
2018-07-11T03:03:46.223Z,0.00
2018-07-11T03:04:46.206Z,0.00
2018-07-11T03:05:46.191Z,0.00
2018-07-11T03:06:46.181Z,0.00
2018-07-11T03:07:46.163Z,0.00
2018-07-11T03:08:46.149Z,0.00
2018-07-11T03:09:46.133Z,0.00
2018-07-11T03:10:46.116Z,0.00
2018-07-11T03:11:46.098Z,0.00
2018-07-11T03:12:46.091Z,0.00
2018-07-11T03:13:46.069Z,0.00
2018-07-11T03:14:46.053Z,5.63
2018-07-11T03:15:46.041Z,5.63
2018-07-11T03:16:46.025Z,5.63
2018-07-11T03:17:46.009Z,5.63
2018-07-11T03:18:45.996Z,5.63
2018-07-11T03:19:45.978Z,5.63
2018-07-11T03:20:45.965Z,5.63
2018-07-11T03:21:45.946Z,5.63
2018-07-11T03:22:45.932Z,5.63
2018-07-11T03:23:45.917Z,5.63
2018-07-11T03:24:45.900Z,5.63
2018-07-11T03:25:45.885Z,5.63
2018-07-11T03:26:45.873Z,5.63
2018-07-11T03:27:45.856Z,5.63
2018-07-11T03:28:45.845Z,5.63
2018-07-11T03:29:45.825Z,5.63
2018-07-11T03:30:45.811Z,5.63
2018-07-11T03:31:45.796Z,5.63
2018-07-11T03:32:45.780Z,5.63
2018-07-11T03:33:45.766Z,5.63
2018-07-11T03:34:45.748Z,11.25
2018-07-11T03:35:45.733Z,11.25
2018-07-11T03:36:45.723Z,11.25
2018-07-11T03:37:45.706Z,16.88
2018-07-11T03:38:45.690Z,16.88
2018-07-11T03:39:45.675Z,22.50
2018-07-11T03:40:45.662Z,22.50
2018-07-11T03:41:45.648Z,28.13
2018-07-11T03:42:45.629Z,28.13
2018-07-11T03:43:45.613Z,33.75
2018-07-11T03:44:45.598Z,33.75
2018-07-11T03:45:45.589Z,33.75
2018-07-11T03:46:45.569Z,33.75
2018-07-11T03:47:45.556Z,39.38
2018-07-11T03:48:45.538Z,39.38
2018-07-11T03:49:45.523Z,39.38
2018-07-11T03:50:45.509Z,39.38
2018-07-11T03:51:45.497Z,39.38
2018-07-11T03:52:45.478Z,45.00
2018-07-11T03:53:45.482Z,45.00
2018-07-11T03:54:45.451Z,45.00
2018-07-11T03:55:45.432Z,45.00
2018-07-11T03:56:45.418Z,50.63
2018-07-11T03:57:45.404Z,50.63
2018-07-11T03:58:45.388Z,50.63
2018-07-11T03:59:45.373Z,50.63
2018-07-11T04:00:45.363Z,50.63
2018-07-11T04:01:45.343Z,50.63
2018-07-11T04:02:45.328Z,50.63
2018-07-11T04:03:45.316Z,50.63
2018-07-11T04:04:45.335Z,45.00
2018-07-11T04:05:45.283Z,45.00
2018-07-11T04:06:45.271Z,45.00
2018-07-11T04:07:45.259Z,45.00
2018-07-11T04:08:45.238Z,45.00
2018-07-11T04:09:45.222Z,45.00
2018-07-11T04:10:45.207Z,45.00
2018-07-11T04:11:45.193Z,50.63
2018-07-11T04:12:45.177Z,50.63
2018-07-11T04:13:45.166Z,50.63
2018-07-11T04:14:45.149Z,56.25
2018-07-11T04:15:45.140Z,56.25
2018-07-11T04:16:45.117Z,61.88
2018-07-11T04:17:45.111Z,61.88
2018-07-11T04:18:45.089Z,61.88
2018-07-11T04:19:45.078Z,61.88
2018-07-11T04:20:45.063Z,67.50
2018-07-11T04:21:45.046Z,67.50
2018-07-11T04:22:45.028Z,73.13
2018-07-11T04:23:45.022Z,73.13
2018-07-11T04:24:44.997Z,73.13
2018-07-11T04:25:44.984Z,67.50
2018-07-11T04:26:44.968Z,73.13
2018-07-11T04:27:44.955Z,73.13
2018-07-11T04:28:44.991Z,73.13
2018-07-11T04:29:44.920Z,78.75
2018-07-11T04:30:44.907Z,78.75
2018-07-11T04:31:44.893Z,84.38
2018-07-11T04:32:44.879Z,84.38
2018-07-11T04:33:44.863Z,90.00
2018-07-11T04:34:44.931Z,90.00
2018-07-11T04:35:44.833Z,90.00
2018-07-11T04:36:44.819Z,90.00
2018-07-11T04:37:44.803Z,84.38
2018-07-11T04:38:44.792Z,84.38
2018-07-11T04:39:44.774Z,78.75
2018-07-11T04:40:44.758Z,78.75
2018-07-11T04:41:44.748Z,73.13
2018-07-11T04:42:44.729Z,78.75
2018-07-11T04:43:44.715Z,78.75
2018-07-11T04:44:44.703Z,78.75
2018-07-11T04:45:44.684Z,84.38
2018-07-11T04:46:44.676Z,84.38
2018-07-11T04:47:44.665Z,90.00
2018-07-11T04:48:44.641Z,101.25
2018-07-11T04:49:44.625Z,112.50
2018-07-11T04:50:44.614Z,129.38
2018-07-11T04:51:44.596Z,146.25
2018-07-11T04:52:44.619Z,157.50
2018-07-11T04:53:44.568Z,174.38
2018-07-11T04:54:44.552Z,185.63
2018-07-11T04:55:44.537Z,202.50
2018-07-11T04:56:44.521Z,208.13
2018-07-11T04:57:44.508Z,208.13
2018-07-11T04:58:44.538Z,202.50
2018-07-11T04:59:44.481Z,191.25
2018-07-11T05:00:44.463Z,180.00
2018-07-11T05:01:44.448Z,163.13
2018-07-11T05:02:44.432Z,151.88
2018-07-11T05:03:44.419Z,157.50
2018-07-11T05:04:44.411Z,163.13
2018-07-11T05:05:44.389Z,174.38
2018-07-11T05:06:44.374Z,191.25
2018-07-11T05:07:44.361Z,208.13
2018-07-11T05:08:44.346Z,225.00
2018-07-11T05:09:44.332Z,225.00
2018-07-11T05:10:44.360Z,225.00
2018-07-11T05:11:44.303Z,230.63
2018-07-11T05:12:44.289Z,225.00
2018-07-11T05:13:44.273Z,219.38
2018-07-11T05:14:44.259Z,219.38
2018-07-11T05:15:44.246Z,225.00
2018-07-11T05:16:44.231Z,208.13
2018-07-11T05:17:44.217Z,219.38
2018-07-11T05:18:44.205Z,213.75
2018-07-11T05:19:44.192Z,219.38
2018-07-11T05:20:44.174Z,208.13
2018-07-11T05:21:44.162Z,196.88
2018-07-11T05:22:44.145Z,202.50
2018-07-11T05:23:44.131Z,191.25
2018-07-11T05:24:44.119Z,185.63
2018-07-11T05:25:44.100Z,174.38
2018-07-11T05:26:44.088Z,157.50
2018-07-11T05:27:44.119Z,146.25
2018-07-11T05:28:44.061Z,140.63
2018-07-11T05:29:44.046Z,140.63
2018-07-11T05:30:44.035Z,129.38
2018-07-11T05:34:27.290Z,135.00
2018-07-11T05:35:27.259Z,146.25
2018-07-11T05:36:27.310Z,157.50
2018-07-11T05:37:27.228Z,174.38
2018-07-11T05:38:27.213Z,185.63
2018-07-11T05:39:27.203Z,196.88
2018-07-11T05:40:27.187Z,208.13
2018-07-11T05:41:27.171Z,225.00
2018-07-11T05:45:10.411Z,253.13
2018-07-11T05:46:10.408Z,264.38
2018-07-11T05:47:10.383Z,281.25
2018-07-11T05:48:10.416Z,298.13
2018-07-11T05:49:10.354Z,315.00
2018-07-11T05:50:10.345Z,303.75
2018-07-11T05:51:10.327Z,292.50
2018-07-11T05:52:10.319Z,275.63
2018-07-11T05:53:10.296Z,275.63
2018-07-11T05:54:10.286Z,298.13
2018-07-11T05:55:10.272Z,286.88
2018-07-11T05:56:10.260Z,292.50
2018-07-11T05:57:10.243Z,309.38
2018-07-11T05:58:10.231Z,298.13
2018-07-11T05:59:10.215Z,315.00
2018-07-11T06:00:10.207Z,326.25
2018-07-11T06:01:10.186Z,365.63
2018-07-11T06:02:10.173Z,416.25
2018-07-11T06:03:10.163Z,421.88
2018-07-11T06:04:10.150Z,433.13
2018-07-11T06:05:10.132Z,438.75
2018-07-11T06:06:10.120Z,461.25
2018-07-11T06:07:10.105Z,450.00
2018-07-11T06:08:10.290Z,444.38
2018-07-11T06:09:10.078Z,461.25
2018-07-11T06:10:10.064Z,461.25
2018-07-11T06:11:10.053Z,450.00
2018-07-11T06:12:10.038Z,444.38
2018-07-11T06:13:10.024Z,500.63
2018-07-11T06:14:10.010Z,562.50
2018-07-11T06:15:10.001Z,573.75
2018-07-11T06:16:09.986Z,556.88
2018-07-11T06:17:09.970Z,534.38
2018-07-11T06:18:09.956Z,517.50
2018-07-11T06:19:09.944Z,461.25
2018-07-11T06:20:09.988Z,410.63
2018-07-11T06:21:09.918Z,376.88
2018-07-11T06:22:09.909Z,365.63
2018-07-11T06:23:09.891Z,365.63
2018-07-11T06:24:09.879Z,360.00
2018-07-11T06:25:09.865Z,405.00
2018-07-11T06:26:09.853Z,421.88
2018-07-11T06:27:09.845Z,421.88
2018-07-11T06:28:09.941Z,399.38
2018-07-11T06:29:09.814Z,405.00
2018-07-11T06:30:09.801Z,405.00
2018-07-11T06:31:09.794Z,388.13
2018-07-11T06:32:09.778Z,354.38
2018-07-11T06:33:09.762Z,337.50
2018-07-11T06:34:09.758Z,326.25
2018-07-11T06:35:09.739Z,326.25
2018-07-11T06:36:09.736Z,360.00
2018-07-11T06:37:09.714Z,405.00
2018-07-11T06:38:09.701Z,348.75
2018-07-11T06:39:09.694Z,360.00
2018-07-11T06:40:09.678Z,360.00
2018-07-11T06:41:09.665Z,354.38
2018-07-11T06:42:09.659Z,354.38
2018-07-11T06:43:09.643Z,348.75
2018-07-11T06:44:09.626Z,348.75
2018-07-11T06:45:09.613Z,348.75
2018-07-11T06:46:09.601Z,354.38
2018-07-11T06:47:09.589Z,371.25
2018-07-11T06:48:09.576Z,343.13
2018-07-11T06:49:09.563Z,354.38
2018-07-11T06:50:09.555Z,455.63
2018-07-11T06:51:09.540Z,444.38
2018-07-11T06:52:09.606Z,360.00
2018-07-11T06:53:09.512Z,354.38
2018-07-11T06:54:09.501Z,343.13
2018-07-11T06:55:09.488Z,331.88
2018-07-11T06:56:09.527Z,354.38
2018-07-11T06:57:09.463Z,388.13
2018-07-11T06:58:09.450Z,427.50
2018-07-11T06:59:09.438Z,478.13
2018-07-11T07:00:09.429Z,427.50
2018-07-11T07:01:09.413Z,410.63
2018-07-11T07:02:09.405Z,365.63
2018-07-11T07:03:09.387Z,365.63
2018-07-11T07:04:09.381Z,382.50
2018-07-11T07:05:09.364Z,410.63
2018-07-11T07:06:09.354Z,421.88
2018-07-11T07:07:09.344Z,405.00
2018-07-11T07:08:09.326Z,427.50
2018-07-11T07:09:09.318Z,450.00
2018-07-11T07:10:09.302Z,427.50
2018-07-11T07:11:09.293Z,410.63
2018-07-11T07:12:09.289Z,399.38
2018-07-11T07:13:09.266Z,444.38
2018-07-11T07:14:09.253Z,438.75
2018-07-11T07:15:09.247Z,478.13
2018-07-11T07:16:09.229Z,489.38
2018-07-11T07:17:09.217Z,472.50
2018-07-11T07:18:09.210Z,472.50
2018-07-11T07:19:09.193Z,483.75
2018-07-11T07:20:09.180Z,511.88
2018-07-11T07:21:09.167Z,523.13
2018-07-11T07:22:09.156Z,511.88
2018-07-11T07:23:09.147Z,551.25
2018-07-11T07:24:09.141Z,540.00
2018-07-11T07:25:09.121Z,551.25
2018-07-11T07:26:09.112Z,500.63
2018-07-11T07:27:09.096Z,495.00
2018-07-11T07:28:09.086Z,478.13
2018-07-11T07:29:09.211Z,405.00
2018-07-11T07:30:09.062Z,303.75
2018-07-11T07:31:09.052Z,326.25
2018-07-11T07:32:09.038Z,337.50
2018-07-11T07:33:09.032Z,315.00
2018-07-11T07:34:09.014Z,376.88
2018-07-11T07:35:09.003Z,416.25
2018-07-11T07:36:09.042Z,416.25
2018-07-11T07:37:08.977Z,405.00
2018-07-11T07:38:08.966Z,315.00
2018-07-11T07:39:08.956Z,303.75
2018-07-11T07:40:08.942Z,298.13
2018-07-11T07:41:08.932Z,320.63
2018-07-11T07:42:08.921Z,416.25
2018-07-11T07:43:08.906Z,399.38
2018-07-11T07:44:08.894Z,309.38
2018-07-11T07:45:08.882Z,292.50
2018-07-11T07:46:08.870Z,354.38
2018-07-11T07:47:08.894Z,365.63
2018-07-11T07:48:08.848Z,382.50
2018-07-11T07:49:08.835Z,365.63
2018-07-11T07:50:08.823Z,326.25
2018-07-11T07:51:08.810Z,326.25
2018-07-11T07:52:08.800Z,331.88
2018-07-11T07:53:08.788Z,371.25
2018-07-11T07:54:08.777Z,382.50
2018-07-11T07:55:08.764Z,472.50
2018-07-11T07:56:08.754Z,528.75
2018-07-11T07:57:08.746Z,534.38
2018-07-11T07:58:08.735Z,551.25
2018-07-11T07:59:08.725Z,579.38
2018-07-11T08:00:08.707Z,556.88
2018-07-11T08:01:08.695Z,585.00
2018-07-11T08:02:08.685Z,624.38
2018-07-11T08:03:08.677Z,607.50
2018-07-11T08:04:08.661Z,641.25
2018-07-11T08:05:08.656Z,697.50
2018-07-11T08:06:08.638Z,742.50
2018-07-11T08:07:08.630Z,630.00
2018-07-11T08:08:08.616Z,714.38
2018-07-11T08:09:08.603Z,871.88
2018-07-11T08:10:08.594Z,618.75
2018-07-11T08:11:08.584Z,472.50
2018-07-11T08:12:08.573Z,489.38
2018-07-11T08:13:08.562Z,3870.00
2018-07-11T08:14:08.551Z,3026.25
2018-07-11T08:15:08.540Z,1485.00
2018-07-11T08:16:08.533Z,3155.63
2018-07-11T08:17:08.517Z,4365.00
2018-07-11T08:18:08.508Z,1462.50
2018-07-11T08:19:08.500Z,686.25
2018-07-11T08:20:08.489Z,686.25
2018-07-11T08:21:08.482Z,1203.75
2018-07-11T08:22:08.472Z,2795.63
2018-07-11T08:23:08.462Z,860.63
2018-07-11T08:24:08.453Z,714.38
2018-07-11T08:25:08.445Z,776.25
2018-07-11T08:26:08.437Z,697.50
2018-07-11T08:27:08.494Z,675.00
2018-07-11T08:28:08.422Z,618.75
2018-07-11T08:29:08.409Z,613.13
2018-07-11T08:30:08.401Z,607.50
2018-07-11T08:31:08.395Z,618.75
2018-07-11T08:32:08.385Z,596.25
2018-07-11T08:33:08.376Z,624.38
2018-07-11T08:34:08.367Z,624.38
2018-07-11T08:35:08.469Z,821.25
2018-07-11T08:36:08.350Z,1063.13
2018-07-11T08:37:08.340Z,1732.50
2018-07-11T08:38:08.331Z,5180.63
2018-07-11T08:39:08.330Z,5006.25
2018-07-11T08:40:08.315Z,4871.25
2018-07-11T08:41:08.311Z,4820.63
2018-07-11T08:42:08.308Z,4775.63
2018-07-11T08:43:08.300Z,3161.25
2018-07-11T08:44:08.286Z,1434.38
2018-07-11T08:45:08.277Z,2396.25
2018-07-11T08:46:08.269Z,978.75
2018-07-11T08:47:08.263Z,1108.13
2018-07-11T08:48:08.308Z,2823.75
2018-07-11T08:49:08.248Z,1243.13
2018-07-11T08:50:08.244Z,607.50
2018-07-11T08:51:08.238Z,562.50
2018-07-11T08:52:08.235Z,601.88
2018-07-11T08:53:08.232Z,652.50
2018-07-11T08:54:08.221Z,680.63
2018-07-11T08:55:08.268Z,731.25
2018-07-11T08:56:08.207Z,725.63
2018-07-11T08:57:08.197Z,686.25
2018-07-11T08:58:08.191Z,691.88
2018-07-11T08:59:08.185Z,703.13
2018-07-11T09:00:08.178Z,714.38
2018-07-11T09:01:08.170Z,759.38
2018-07-11T09:02:08.164Z,832.50
2018-07-11T09:03:08.161Z,877.50
2018-07-11T09:04:08.151Z,855.00
2018-07-11T09:05:08.146Z,832.50
2018-07-11T09:06:08.138Z,877.50
2018-07-11T09:07:08.133Z,1006.88
2018-07-11T09:08:08.122Z,1181.25
2018-07-11T09:09:08.113Z,2458.13
2018-07-11T09:10:08.108Z,3138.75
2018-07-11T09:11:08.109Z,3431.25
2018-07-11T09:12:08.097Z,3110.63
2018-07-11T09:13:08.088Z,2385.00
2018-07-11T09:14:08.080Z,4590.00
2018-07-11T09:15:08.074Z,2435.63
2018-07-11T09:16:08.073Z,3150.00
2018-07-11T09:17:08.070Z,4854.38
2018-07-11T09:18:08.057Z,4320.00
2018-07-11T09:19:08.052Z,3403.13
2018-07-11T09:20:08.044Z,3830.63
2018-07-11T09:21:08.036Z,3436.88
2018-07-11T09:22:08.033Z,1603.13
2018-07-11T09:23:08.027Z,1524.38
2018-07-11T09:24:08.076Z,4595.63
2018-07-11T09:26:08.013Z,3481.88
2018-07-11T09:27:08.006Z,3273.75
2018-07-11T09:28:08.002Z,3532.50
2018-07-11T09:29:07.993Z,4713.75
2018-07-11T09:30:07.990Z,6238.13
2018-07-11T09:31:07.986Z,4623.75
2018-07-11T09:32:07.981Z,4663.13
2018-07-11T09:33:07.978Z,5619.38
2018-07-11T09:34:07.971Z,5281.88
2018-07-11T09:35:07.976Z,2244.38
2018-07-11T09:36:07.965Z,2446.88
2018-07-11T09:37:07.960Z,2317.50
2018-07-11T09:38:07.955Z,2311.88
2018-07-11T09:39:07.954Z,1974.38
2018-07-11T09:40:07.951Z,2283.75
2018-07-11T09:41:07.944Z,1485.00
2018-07-11T09:42:07.942Z,1372.50
2018-07-11T09:43:07.937Z,1299.38
2018-07-11T09:44:07.934Z,945.00
2018-07-11T09:45:07.932Z,849.38
2018-07-11T09:46:07.928Z,781.88
2018-07-11T09:47:07.924Z,928.13
2018-07-11T09:48:07.922Z,646.88
2018-07-11T09:49:07.916Z,697.50
2018-07-11T09:50:07.912Z,630.00
2018-07-11T09:51:07.909Z,607.50
2018-07-11T09:52:07.961Z,646.88
2018-07-11T09:53:07.902Z,697.50
2018-07-11T09:54:07.900Z,731.25
2018-07-11T09:55:07.893Z,810.00
2018-07-11T09:56:07.890Z,838.13
2018-07-11T09:57:07.892Z,1130.63
2018-07-11T09:58:07.882Z,736.88
2018-07-11T09:59:07.884Z,781.88
2018-07-11T10:00:07.874Z,675.00
2018-07-11T10:01:07.870Z,691.88
2018-07-11T10:02:07.872Z,748.13
2018-07-11T10:03:07.864Z,793.13
2018-07-11T10:04:07.853Z,916.88
2018-07-11T10:05:07.888Z,945.00
2018-07-11T10:06:07.844Z,978.75
2018-07-11T10:07:07.840Z,1141.88
2018-07-11T10:08:07.839Z,1153.13
2018-07-11T10:09:07.835Z,2300.63
2018-07-11T10:10:07.826Z,1755.00
2018-07-11T10:11:07.827Z,3594.38
2018-07-11T10:12:07.815Z,5855.63
2018-07-11T10:13:07.810Z,3301.88
2018-07-11T10:14:07.810Z,5349.38
2018-07-11T10:15:07.802Z,2868.75
2018-07-11T10:16:07.800Z,3796.88
2018-07-11T10:17:07.792Z,3566.25
2018-07-11T10:18:07.788Z,3504.38
2018-07-11T10:19:07.785Z,4359.38
2018-07-11T10:20:07.781Z,4618.13
2018-07-11T10:21:07.776Z,5928.75
2018-07-11T10:22:07.775Z,5760.00
2018-07-11T10:23:07.777Z,6170.63
2018-07-11T10:24:07.764Z,3290.63
2018-07-11T10:25:07.760Z,4927.50
2018-07-11T10:26:07.757Z,1856.25
2018-07-11T10:27:07.753Z,2272.50
2018-07-11T10:28:07.765Z,2019.38
2018-07-11T10:29:07.748Z,3515.63
2018-07-11T10:30:07.747Z,3043.13
2018-07-11T10:31:07.741Z,3380.63
2018-07-11T10:32:07.739Z,2250.00
2018-07-11T10:33:07.742Z,1923.75
2018-07-11T10:34:07.733Z,1468.13
2018-07-11T10:35:07.727Z,1636.88
2018-07-11T10:36:07.724Z,1575.00
2018-07-11T10:37:07.722Z,1715.63
2018-07-11T10:38:07.720Z,1614.38
2018-07-11T10:39:07.777Z,1541.25
2018-07-11T10:40:07.712Z,1265.63
2018-07-11T10:41:07.710Z,1293.75
2018-07-11T10:42:07.710Z,1423.13
2018-07-11T10:43:07.706Z,1462.50
2018-07-11T10:44:07.703Z,1434.38
2018-07-11T10:45:07.699Z,1395.00
2018-07-11T10:46:07.700Z,1395.00
2018-07-11T10:47:07.702Z,1428.75
2018-07-11T10:48:07.693Z,1451.25
2018-07-11T10:49:07.694Z,1316.25
2018-07-11T10:50:07.687Z,1473.75
2018-07-11T10:51:07.687Z,1462.50
2018-07-11T10:52:07.685Z,1344.38
2018-07-11T10:53:07.680Z,1164.38
2018-07-11T10:54:07.780Z,832.50
2018-07-11T10:55:08.083Z,826.88
2018-07-11T10:56:07.676Z,1035.00
2018-07-11T10:57:07.672Z,1006.88
2018-07-11T10:58:07.671Z,815.63
2018-07-11T10:59:07.670Z,736.88
2018-07-11T11:00:07.679Z,815.63
2018-07-11T11:01:07.701Z,787.50
2018-07-11T11:02:07.661Z,781.88
2018-07-11T11:03:07.663Z,866.25
2018-07-11T11:04:07.655Z,798.75
2018-07-11T11:05:07.657Z,900.00
2018-07-11T11:06:07.649Z,1153.13
2018-07-11T11:07:07.648Z,1501.88
2018-07-11T11:08:07.743Z,1170.00
2018-07-11T11:09:07.641Z,1563.75
2018-07-11T11:10:07.638Z,1608.75
2018-07-11T11:11:07.639Z,1501.88
2018-07-11T11:12:07.642Z,1625.63
2018-07-11T11:13:07.639Z,1850.63
2018-07-11T11:14:07.638Z,1417.50
2018-07-11T11:15:07.629Z,1417.50
2018-07-11T11:16:07.623Z,1305.00
2018-07-11T11:17:07.621Z,1389.38
2018-07-11T11:18:07.617Z,1788.75
2018-07-11T11:19:07.616Z,1125.00
2018-07-11T11:20:07.614Z,1181.25
2018-07-11T11:21:07.619Z,1350.00
2018-07-11T11:22:07.610Z,1063.13
2018-07-11T11:23:07.609Z,1198.13
2018-07-11T11:24:07.607Z,1141.88
2018-07-11T11:25:07.626Z,1732.50
2018-07-11T11:26:07.602Z,1276.88
2018-07-11T11:27:07.600Z,945.00
2018-07-11T11:28:07.601Z,1282.50
2018-07-11T11:29:07.595Z,1108.13
2018-07-11T11:30:07.595Z,1428.75
2018-07-11T11:31:07.591Z,1063.13
2018-07-11T11:32:07.591Z,1383.75
2018-07-11T11:33:07.589Z,1220.63
2018-07-11T11:34:07.586Z,1186.88
2018-07-11T11:35:07.584Z,1451.25
2018-07-11T11:36:07.582Z,1164.38
2018-07-11T11:37:07.585Z,1164.38
2018-07-11T11:38:07.578Z,1271.25
2018-07-11T11:39:07.576Z,1282.50
2018-07-11T11:40:07.578Z,1220.63
2018-07-11T11:41:07.576Z,1147.50
2018-07-11T11:42:07.749Z,1220.63
2018-07-11T11:43:07.570Z,1215.00
2018-07-11T11:44:07.571Z,1198.13
2018-07-11T11:45:07.568Z,1726.88
2018-07-11T11:46:07.571Z,1192.50
2018-07-11T11:47:07.562Z,1080.00
2018-07-11T11:48:07.561Z,1175.63
2018-07-11T11:49:07.556Z,1057.50
2018-07-11T11:50:07.554Z,1670.63
2018-07-11T11:51:07.554Z,1636.88
2018-07-11T11:52:07.552Z,1546.88
2018-07-11T11:53:07.548Z,1389.38
2018-07-11T11:54:07.547Z,1361.25
2018-07-11T11:55:07.551Z,1333.13
2018-07-11T11:56:07.546Z,1321.88
2018-07-11T11:57:07.545Z,1316.25
2018-07-11T11:58:07.543Z,1288.13
2018-07-11T11:59:07.542Z,1282.50
2018-07-11T12:00:07.544Z,1276.88
2018-07-11T12:01:07.537Z,1209.38
2018-07-11T12:02:07.537Z,1220.63
2018-07-11T12:03:07.535Z,1001.25
2018-07-11T12:04:07.534Z,1147.50
2018-07-11T12:05:07.536Z,1130.63
2018-07-11T12:06:07.533Z,871.88
2018-07-11T12:07:07.544Z,871.88
2018-07-11T12:08:07.527Z,815.63
2018-07-11T12:09:07.526Z,1012.50
2018-07-11T12:10:07.527Z,900.00
2018-07-11T12:11:07.527Z,888.75
2018-07-11T12:12:07.522Z,1006.88
2018-07-11T12:13:07.520Z,1215.00
2018-07-11T12:14:07.518Z,1203.75
2018-07-11T12:15:07.516Z,1209.38
2018-07-11T12:16:07.519Z,1845.00
2018-07-11T12:17:07.511Z,3206.25
2018-07-11T12:18:07.512Z,4140.00
2018-07-11T12:19:07.510Z,1726.88
2018-07-11T12:20:07.511Z,4837.50
2018-07-11T12:21:07.536Z,3211.88
2018-07-11T12:22:07.503Z,2126.25
2018-07-11T12:23:07.504Z,1361.25
2018-07-11T12:24:07.503Z,1282.50
2018-07-11T12:25:07.498Z,1333.13
2018-07-11T12:26:07.504Z,1271.25
2018-07-11T12:27:07.500Z,961.88
2018-07-11T12:28:07.523Z,1074.38
2018-07-11T12:29:07.494Z,1670.63
2018-07-11T12:30:07.493Z,2660.63
2018-07-11T12:31:07.493Z,4916.25
2018-07-11T12:32:07.490Z,2345.63
2018-07-11T12:33:07.488Z,3431.25
2018-07-11T12:34:07.488Z,1473.75
2018-07-11T12:35:07.496Z,1125.00
2018-07-11T12:36:07.486Z,1147.50
2018-07-11T12:37:07.485Z,748.13
2018-07-11T12:38:07.481Z,759.38
2018-07-11T12:39:07.482Z,995.63
2018-07-11T12:40:07.480Z,933.75
2018-07-11T12:41:07.479Z,1321.88
2018-07-11T12:42:07.477Z,4263.75
2018-07-11T12:43:07.477Z,4376.25
2018-07-11T12:44:07.470Z,3335.63
2018-07-11T12:45:07.469Z,2542.50